sensor_id;sensor_type;location;lat;lon;timestamp;P1;durP1;ratioP1;P2;durP2;ratioP2
39044;SDS011;52192;52.002;5.956;2023-08-20T00:00:27;10.00;;;1.67;;
39044;SDS011;52192;52.002;5.956;2023-08-20T00:03:12;4.05;;;1.23;;
39044;SDS011;52192;52.002;5.956;2023-08-20T00:05:39;0.70;;;0.70;;
39044;SDS011;52192;52.002;5.956;2023-08-20T00:08:05;1.23;;;1.10;;
39044;SDS011;52192;52.002;5.956;2023-08-20T00:10:32;2.42;;;1.10;;
39044;SDS011;52192;52.002;5.956;2023-08-20T00:12:57;3.67;;;1.83;;
39044;SDS011;52192;52.002;5.956;2023-08-20T00:15:23;1.73;;;1.10;;
39044;SDS011;52192;52.002;5.956;2023-08-20T00:17:52;0.80;;;0.80;;
39044;SDS011;52192;52.002;5.956;2023-08-20T00:20:18;0.90;;;0.90;;
39044;SDS011;52192;52.002;5.956;2023-08-20T00:22:44;1.08;;;1.05;;
39044;SDS011;52192;52.002;5.956;2023-08-20T00:25:14;1.90;;;1.08;;
39044;SDS011;52192;52.002;5.956;2023-08-20T00:27:41;0.77;;;0.77;;
39044;SDS011;52192;52.002;5.956;2023-08-20T00:30:07;2.53;;;0.90;;
39044;SDS011;52192;52.002;5.956;2023-08-20T00:32:34;2.35;;;1.23;;
39044;SDS011;52192;52.002;5.956;2023-08-20T00:35:00;2.70;;;1.10;;
39044;SDS011;52192;52.002;5.956;2023-08-20T00:37:28;1.23;;;0.93;;
39044;SDS011;52192;52.002;5.956;2023-08-20T00:39:54;1.13;;;0.93;;
39044;SDS011;52192;52.002;5.956;2023-08-20T00:42:20;0.95;;;0.93;;
39044;SDS011;52192;52.002;5.956;2023-08-20T00:44:45;0.82;;;0.82;;
39044;SDS011;52192;52.002;5.956;2023-08-20T00:47:12;0.77;;;0.75;;
39044;SDS011;52192;52.002;5.956;2023-08-20T00:49:39;1.50;;;1.08;;
39044;SDS011;52192;52.002;5.956;2023-08-20T00:52:06;1.70;;;0.98;;
39044;SDS011;52192;52.002;5.956;2023-08-20T00:54:33;2.67;;;1.23;;
39044;SDS011;52192;52.002;5.956;2023-08-20T00:57:00;1.77;;;1.15;;
39044;SDS011;52192;52.002;5.956;2023-08-20T00:59:27;1.10;;;1.00;;
39044;SDS011;52192;52.002;5.956;2023-08-20T01:01:55;1.30;;;0.80;;
39044;SDS011;52192;52.002;5.956;2023-08-20T01:04:20;2.92;;;0.80;;
39044;SDS011;52192;52.002;5.956;2023-08-20T01:07:01;1.73;;;0.88;;
39044;SDS011;52192;52.002;5.956;2023-08-20T01:12:27;1.50;;;0.80;;
39044;SDS011;52192;52.002;5.956;2023-08-20T01:14:54;1.60;;;1.02;;
39044;SDS011;52192;52.002;5.956;2023-08-20T01:17:20;1.88;;;1.20;;
39044;SDS011;52192;52.002;5.956;2023-08-20T01:19:45;1.95;;;1.10;;
39044;SDS011;52192;52.002;5.956;2023-08-20T01:30:47;0.95;;;0.90;;
39044;SDS011;52192;52.002;5.956;2023-08-20T01:33:13;2.35;;;1.10;;
39044;SDS011;52192;52.002;5.956;2023-08-20T01:35:40;1.15;;;1.05;;
39044;SDS011;52192;52.002;5.956;2023-08-20T01:38:06;2.20;;;0.90;;
39044;SDS011;52192;52.002;5.956;2023-08-20T01:40:32;1.30;;;1.20;;
39044;SDS011;52192;52.002;5.956;2023-08-20T01:42:58;3.95;;;1.42;;
39044;SDS011;52192;52.002;5.956;2023-08-20T01:45:24;0.85;;;0.85;;
39044;SDS011;52192;52.002;5.956;2023-08-20T01:47:51;0.80;;;0.80;;
39044;SDS011;52192;52.002;5.956;2023-08-20T01:50:17;1.08;;;0.70;;
39044;SDS011;52192;52.002;5.956;2023-08-20T01:52:43;0.75;;;0.75;;
39044;SDS011;52192;52.002;5.956;2023-08-20T01:55:08;1.10;;;1.00;;
39044;SDS011;52192;52.002;5.956;2023-08-20T01:57:34;2.33;;;0.82;;
39044;SDS011;52192;52.002;5.956;2023-08-20T02:00:00;0.85;;;0.82;;
39044;SDS011;52192;52.002;5.956;2023-08-20T02:02:25;0.70;;;0.70;;
39044;SDS011;52192;52.002;5.956;2023-08-20T02:04:51;3.83;;;1.33;;
39044;SDS011;52192;52.002;5.956;2023-08-20T02:07:16;2.25;;;0.70;;
39044;SDS011;52192;52.002;5.956;2023-08-20T02:09:42;1.08;;;0.90;;
39044;SDS011;52192;52.002;5.956;2023-08-20T02:12:08;1.35;;;1.13;;
39044;SDS011;52192;52.002;5.956;2023-08-20T02:14:34;1.23;;;0.90;;
39044;SDS011;52192;52.002;5.956;2023-08-20T02:17:03;0.77;;;0.77;;
39044;SDS011;52192;52.002;5.956;2023-08-20T02:19:30;0.70;;;0.70;;
39044;SDS011;52192;52.002;5.956;2023-08-20T02:21:55;0.93;;;0.93;;
39044;SDS011;52192;52.002;5.956;2023-08-20T02:24:21;1.10;;;0.95;;
39044;SDS011;52192;52.002;5.956;2023-08-20T02:26:47;1.38;;;0.90;;
39044;SDS011;52192;52.002;5.956;2023-08-20T02:29:12;2.63;;;1.10;;
39044;SDS011;52192;52.002;5.956;2023-08-20T02:31:38;1.88;;;1.45;;
39044;SDS011;52192;52.002;5.956;2023-08-20T02:34:04;2.40;;;1.27;;
39044;SDS011;52192;52.002;5.956;2023-08-20T02:36:29;0.80;;;0.80;;
39044;SDS011;52192;52.002;5.956;2023-08-20T02:38:55;1.95;;;1.38;;
39044;SDS011;52192;52.002;5.956;2023-08-20T02:41:21;1.48;;;1.25;;
39044;SDS011;52192;52.002;5.956;2023-08-20T02:43:47;0.98;;;0.98;;
39044;SDS011;52192;52.002;5.956;2023-08-20T02:46:13;1.00;;;0.90;;
39044;SDS011;52192;52.002;5.956;2023-08-20T02:48:38;1.00;;;0.90;;
39044;SDS011;52192;52.002;5.956;2023-08-20T02:51:04;2.15;;;1.10;;
39044;SDS011;52192;52.002;5.956;2023-08-20T02:53:30;3.58;;;1.60;;
39044;SDS011;52192;52.002;5.956;2023-08-20T02:55:55;2.33;;;1.40;;
39044;SDS011;52192;52.002;5.956;2023-08-20T02:58:21;1.77;;;1.17;;
39044;SDS011;52192;52.002;5.956;2023-08-20T03:00:47;1.70;;;1.40;;
39044;SDS011;52192;52.002;5.956;2023-08-20T03:03:13;1.63;;;1.38;;
39044;SDS011;52192;52.002;5.956;2023-08-20T03:05:39;1.27;;;1.17;;
39044;SDS011;52192;52.002;5.956;2023-08-20T03:08:05;2.67;;;1.40;;
39044;SDS011;52192;52.002;5.956;2023-08-20T03:10:31;1.45;;;1.35;;
39044;SDS011;52192;52.002;5.956;2023-08-20T03:13:00;1.48;;;1.10;;
39044;SDS011;52192;52.002;5.956;2023-08-20T03:15:27;3.08;;;1.35;;
39044;SDS011;52192;52.002;5.956;2023-08-20T03:17:53;3.33;;;1.63;;
39044;SDS011;52192;52.002;5.956;2023-08-20T03:20:19;5.40;;;1.33;;
39044;SDS011;52192;52.002;5.956;2023-08-20T03:22:44;1.48;;;1.30;;
39044;SDS011;52192;52.002;5.956;2023-08-20T03:25:10;1.38;;;1.17;;
39044;SDS011;52192;52.002;5.956;2023-08-20T03:27:36;1.40;;;1.05;;
39044;SDS011;52192;52.002;5.956;2023-08-20T03:30:02;2.17;;;1.63;;
39044;SDS011;52192;52.002;5.956;2023-08-20T03:32:29;1.55;;;1.40;;
39044;SDS011;52192;52.002;5.956;2023-08-20T03:34:54;1.40;;;1.30;;
39044;SDS011;52192;52.002;5.956;2023-08-20T03:37:21;1.17;;;0.98;;
39044;SDS011;52192;52.002;5.956;2023-08-20T03:39:47;4.93;;;1.58;;
39044;SDS011;52192;52.002;5.956;2023-08-20T03:42:13;3.92;;;1.73;;
39044;SDS011;52192;52.002;5.956;2023-08-20T03:44:38;2.35;;;1.50;;
39044;SDS011;52192;52.002;5.956;2023-08-20T03:47:04;1.77;;;1.65;;
39044;SDS011;52192;52.002;5.956;2023-08-20T03:49:31;1.27;;;1.05;;
39044;SDS011;52192;52.002;5.956;2023-08-20T03:52:03;1.10;;;1.00;;
39044;SDS011;52192;52.002;5.956;2023-08-20T03:54:36;2.15;;;1.95;;
39044;SDS011;52192;52.002;5.956;2023-08-20T03:57:02;1.33;;;1.23;;
39044;SDS011;52192;52.002;5.956;2023-08-20T03:59:27;1.33;;;1.23;;
39044;SDS011;52192;52.002;5.956;2023-08-20T04:01:54;3.20;;;1.75;;
39044;SDS011;52192;52.002;5.956;2023-08-20T04:04:20;3.15;;;1.40;;
39044;SDS011;52192;52.002;5.956;2023-08-20T04:06:46;2.42;;;1.45;;
39044;SDS011;52192;52.002;5.956;2023-08-20T04:09:12;1.67;;;1.48;;
39044;SDS011;52192;52.002;5.956;2023-08-20T04:11:38;4.55;;;1.38;;
39044;SDS011;52192;52.002;5.956;2023-08-20T04:14:03;4.13;;;1.10;;
39044;SDS011;52192;52.002;5.956;2023-08-20T04:16:29;1.63;;;1.30;;
39044;SDS011;52192;52.002;5.956;2023-08-20T04:18:55;1.75;;;1.30;;
39044;SDS011;52192;52.002;5.956;2023-08-20T04:21:21;2.28;;;1.15;;
39044;SDS011;52192;52.002;5.956;2023-08-20T04:23:47;5.15;;;1.25;;
39044;SDS011;52192;52.002;5.956;2023-08-20T04:26:12;1.88;;;1.33;;
39044;SDS011;52192;52.002;5.956;2023-08-20T04:28:38;3.63;;;1.45;;
39044;SDS011;52192;52.002;5.956;2023-08-20T04:31:04;2.95;;;1.95;;
39044;SDS011;52192;52.002;5.956;2023-08-20T04:33:29;7.53;;;1.95;;
39044;SDS011;52192;52.002;5.956;2023-08-20T04:35:55;2.28;;;1.25;;
39044;SDS011;52192;52.002;5.956;2023-08-20T04:38:21;3.47;;;1.70;;
39044;SDS011;52192;52.002;5.956;2023-08-20T04:40:47;1.65;;;1.55;;
39044;SDS011;52192;52.002;5.956;2023-08-20T04:43:13;2.08;;;1.38;;
39044;SDS011;52192;52.002;5.956;2023-08-20T04:45:39;4.40;;;1.70;;
39044;SDS011;52192;52.002;5.956;2023-08-20T04:48:05;2.65;;;1.50;;
39044;SDS011;52192;52.002;5.956;2023-08-20T04:50:31;1.55;;;1.42;;
39044;SDS011;52192;52.002;5.956;2023-08-20T04:52:57;1.95;;;1.45;;
39044;SDS011;52192;52.002;5.956;2023-08-20T04:55:24;2.35;;;1.48;;
39044;SDS011;52192;52.002;5.956;2023-08-20T04:57:50;4.80;;;1.67;;
39044;SDS011;52192;52.002;5.956;2023-08-20T05:00:16;3.95;;;1.70;;
39044;SDS011;52192;52.002;5.956;2023-08-20T05:02:42;1.60;;;1.20;;
39044;SDS011;52192;52.002;5.956;2023-08-20T05:05:07;1.45;;;1.33;;
39044;SDS011;52192;52.002;5.956;2023-08-20T05:07:33;1.73;;;1.52;;
39044;SDS011;52192;52.002;5.956;2023-08-20T05:10:00;2.63;;;1.70;;
39044;SDS011;52192;52.002;5.956;2023-08-20T05:12:25;1.77;;;1.42;;
39044;SDS011;52192;52.002;5.956;2023-08-20T05:14:51;2.22;;;1.70;;
39044;SDS011;52192;52.002;5.956;2023-08-20T05:17:16;2.53;;;1.70;;
39044;SDS011;52192;52.002;5.956;2023-08-20T05:19:42;1.80;;;1.48;;
39044;SDS011;52192;52.002;5.956;2023-08-20T05:22:08;1.70;;;1.60;;
39044;SDS011;52192;52.002;5.956;2023-08-20T05:24:35;3.38;;;1.85;;
39044;SDS011;52192;52.002;5.956;2023-08-20T05:27:08;1.77;;;1.33;;
39044;SDS011;52192;52.002;5.956;2023-08-20T05:29:35;1.70;;;1.60;;
39044;SDS011;52192;52.002;5.956;2023-08-20T05:32:02;2.00;;;1.40;;
39044;SDS011;52192;52.002;5.956;2023-08-20T05:34:28;2.15;;;1.60;;
39044;SDS011;52192;52.002;5.956;2023-08-20T05:36:54;1.58;;;1.23;;
39044;SDS011;52192;52.002;5.956;2023-08-20T05:39:19;1.80;;;1.60;;
39044;SDS011;52192;52.002;5.956;2023-08-20T05:41:45;1.95;;;1.40;;
39044;SDS011;52192;52.002;5.956;2023-08-20T05:44:11;1.92;;;1.58;;
39044;SDS011;52192;52.002;5.956;2023-08-20T05:46:36;2.88;;;1.63;;
39044;SDS011;52192;52.002;5.956;2023-08-20T05:49:02;2.40;;;1.50;;
39044;SDS011;52192;52.002;5.956;2023-08-20T05:51:28;2.08;;;1.30;;
39044;SDS011;52192;52.002;5.956;2023-08-20T05:53:53;2.05;;;1.25;;
39044;SDS011;52192;52.002;5.956;2023-08-20T05:56:19;1.73;;;1.17;;
39044;SDS011;52192;52.002;5.956;2023-08-20T05:58:45;1.20;;;1.02;;
39044;SDS011;52192;52.002;5.956;2023-08-20T06:01:11;3.05;;;1.30;;
39044;SDS011;52192;52.002;5.956;2023-08-20T06:03:36;2.75;;;1.48;;
39044;SDS011;52192;52.002;5.956;2023-08-20T06:06:02;1.05;;;1.00;;
39044;SDS011;52192;52.002;5.956;2023-08-20T06:08:28;0.80;;;0.73;;
39044;SDS011;52192;52.002;5.956;2023-08-20T06:10:53;1.35;;;1.10;;
39044;SDS011;52192;52.002;5.956;2023-08-20T06:13:19;1.23;;;1.10;;
39044;SDS011;52192;52.002;5.956;2023-08-20T06:15:45;3.95;;;1.00;;
39044;SDS011;52192;52.002;5.956;2023-08-20T06:18:10;1.90;;;1.05;;
39044;SDS011;52192;52.002;5.956;2023-08-20T06:20:36;5.05;;;1.60;;
39044;SDS011;52192;52.002;5.956;2023-08-20T06:23:02;6.40;;;1.52;;
39044;SDS011;52192;52.002;5.956;2023-08-20T06:25:28;4.05;;;0.80;;
39044;SDS011;52192;52.002;5.956;2023-08-20T06:27:54;4.10;;;1.42;;
39044;SDS011;52192;52.002;5.956;2023-08-20T06:30:19;2.33;;;0.70;;
39044;SDS011;52192;52.002;5.956;2023-08-20T06:32:45;3.80;;;1.27;;
39044;SDS011;52192;52.002;5.956;2023-08-20T06:35:11;6.07;;;1.05;;
39044;SDS011;52192;52.002;5.956;2023-08-20T06:37:38;3.72;;;0.85;;
39044;SDS011;52192;52.002;5.956;2023-08-20T06:40:05;6.35;;;1.30;;
39044;SDS011;52192;52.002;5.956;2023-08-20T06:42:31;1.52;;;0.95;;
39044;SDS011;52192;52.002;5.956;2023-08-20T06:44:57;4.65;;;1.25;;
39044;SDS011;52192;52.002;5.956;2023-08-20T06:47:23;1.83;;;1.17;;
39044;SDS011;52192;52.002;5.956;2023-08-20T06:49:49;3.28;;;1.20;;
39044;SDS011;52192;52.002;5.956;2023-08-20T06:52:15;5.88;;;1.73;;
39044;SDS011;52192;52.002;5.956;2023-08-20T06:54:41;2.15;;;1.50;;
39044;SDS011;52192;52.002;5.956;2023-08-20T06:57:07;1.33;;;1.05;;
39044;SDS011;52192;52.002;5.956;2023-08-20T06:59:32;6.32;;;1.55;;
39044;SDS011;52192;52.002;5.956;2023-08-20T07:01:58;3.97;;;1.63;;
39044;SDS011;52192;52.002;5.956;2023-08-20T07:04:24;3.63;;;1.90;;
39044;SDS011;52192;52.002;5.956;2023-08-20T07:06:50;1.50;;;1.30;;
39044;SDS011;52192;52.002;5.956;2023-08-20T07:09:16;4.80;;;1.20;;
39044;SDS011;52192;52.002;5.956;2023-08-20T07:11:42;2.63;;;0.90;;
39044;SDS011;52192;52.002;5.956;2023-08-20T07:14:08;2.70;;;1.70;;
39044;SDS011;52192;52.002;5.956;2023-08-20T07:16:34;2.60;;;1.20;;
39044;SDS011;52192;52.002;5.956;2023-08-20T07:18:59;2.05;;;1.00;;
39044;SDS011;52192;52.002;5.956;2023-08-20T07:21:25;2.42;;;0.73;;
39044;SDS011;52192;52.002;5.956;2023-08-20T07:23:51;3.90;;;0.85;;
39044;SDS011;52192;52.002;5.956;2023-08-20T07:26:16;3.10;;;1.20;;
39044;SDS011;52192;52.002;5.956;2023-08-20T07:28:42;1.35;;;1.08;;
39044;SDS011;52192;52.002;5.956;2023-08-20T07:31:26;1.65;;;0.73;;
39044;SDS011;52192;52.002;5.956;2023-08-20T07:33:54;0.80;;;0.68;;
39044;SDS011;52192;52.002;5.956;2023-08-20T07:36:21;0.60;;;0.60;;
39044;SDS011;52192;52.002;5.956;2023-08-20T07:38:48;1.80;;;1.02;;
39044;SDS011;52192;52.002;5.956;2023-08-20T07:41:14;1.35;;;0.68;;
39044;SDS011;52192;52.002;5.956;2023-08-20T07:43:40;1.13;;;0.90;;
39044;SDS011;52192;52.002;5.956;2023-08-20T07:46:06;1.88;;;0.90;;
39044;SDS011;52192;52.002;5.956;2023-08-20T07:48:33;1.20;;;0.95;;
39044;SDS011;52192;52.002;5.956;2023-08-20T07:50:59;0.75;;;0.60;;
39044;SDS011;52192;52.002;5.956;2023-08-20T07:53:25;1.55;;;0.65;;
39044;SDS011;52192;52.002;5.956;2023-08-20T07:55:51;6.10;;;1.00;;
39044;SDS011;52192;52.002;5.956;2023-08-20T07:58:17;3.17;;;1.08;;
39044;SDS011;52192;52.002;5.956;2023-08-20T08:00:43;6.05;;;0.90;;
39044;SDS011;52192;52.002;5.956;2023-08-20T08:03:08;0.50;;;0.50;;
39044;SDS011;52192;52.002;5.956;2023-08-20T08:05:35;3.25;;;1.00;;
39044;SDS011;52192;52.002;5.956;2023-08-20T08:08:01;0.77;;;0.60;;
39044;SDS011;52192;52.002;5.956;2023-08-20T08:10:27;1.20;;;0.95;;
39044;SDS011;52192;52.002;5.956;2023-08-20T08:12:53;1.83;;;0.63;;
39044;SDS011;52192;52.002;5.956;2023-08-20T08:15:19;1.38;;;0.63;;
39044;SDS011;52192;52.002;5.956;2023-08-20T08:17:44;0.38;;;0.38;;
39044;SDS011;52192;52.002;5.956;2023-08-20T08:20:10;0.30;;;0.30;;
39044;SDS011;52192;52.002;5.956;2023-08-20T08:22:36;1.40;;;1.05;;
39044;SDS011;52192;52.002;5.956;2023-08-20T08:25:02;1.58;;;0.75;;
39044;SDS011;52192;52.002;5.956;2023-08-20T08:27:28;0.63;;;0.50;;
39044;SDS011;52192;52.002;5.956;2023-08-20T08:29:53;1.38;;;0.80;;
39044;SDS011;52192;52.002;5.956;2023-08-20T08:32:19;0.57;;;0.57;;
39044;SDS011;52192;52.002;5.956;2023-08-20T08:34:44;1.58;;;0.50;;
39044;SDS011;52192;52.002;5.956;2023-08-20T08:37:10;1.17;;;0.60;;
39044;SDS011;52192;52.002;5.956;2023-08-20T08:39:36;1.90;;;0.68;;
39044;SDS011;52192;52.002;5.956;2023-08-20T08:42:02;1.90;;;0.88;;
39044;SDS011;52192;52.002;5.956;2023-08-20T08:44:33;1.05;;;0.50;;
39044;SDS011;52192;52.002;5.956;2023-08-20T08:46:59;1.63;;;0.70;;
39044;SDS011;52192;52.002;5.956;2023-08-20T08:49:26;3.00;;;0.60;;
39044;SDS011;52192;52.002;5.956;2023-08-20T08:51:53;1.40;;;0.52;;
39044;SDS011;52192;52.002;5.956;2023-08-20T08:54:21;0.60;;;0.55;;
39044;SDS011;52192;52.002;5.956;2023-08-20T08:56:47;3.45;;;1.15;;
39044;SDS011;52192;52.002;5.956;2023-08-20T08:59:13;3.92;;;1.30;;
39044;SDS011;52192;52.002;5.956;2023-08-20T09:01:39;3.72;;;0.90;;
39044;SDS011;52192;52.002;5.956;2023-08-20T09:04:06;2.78;;;0.40;;
39044;SDS011;52192;52.002;5.956;2023-08-20T09:06:44;0.65;;;0.30;;
39044;SDS011;52192;52.002;5.956;2023-08-20T09:09:11;2.60;;;0.40;;
39044;SDS011;52192;52.002;5.956;2023-08-20T09:11:38;1.02;;;0.50;;
39044;SDS011;52192;52.002;5.956;2023-08-20T09:14:03;2.63;;;0.85;;
39044;SDS011;52192;52.002;5.956;2023-08-20T09:16:30;0.20;;;0.20;;
39044;SDS011;52192;52.002;5.956;2023-08-20T09:18:57;0.47;;;0.47;;
39044;SDS011;52192;52.002;5.956;2023-08-20T09:21:28;0.50;;;0.43;;
39044;SDS011;52192;52.002;5.956;2023-08-20T09:23:54;0.95;;;0.40;;
39044;SDS011;52192;52.002;5.956;2023-08-20T09:26:22;1.20;;;0.50;;
39044;SDS011;52192;52.002;5.956;2023-08-20T09:28:47;0.73;;;0.50;;
39044;SDS011;52192;52.002;5.956;2023-08-20T09:31:13;0.60;;;0.60;;
39044;SDS011;52192;52.002;5.956;2023-08-20T09:33:50;0.47;;;0.47;;
39044;SDS011;52192;52.002;5.956;2023-08-20T09:36:16;0.40;;;0.40;;
39044;SDS011;52192;52.002;5.956;2023-08-20T09:38:42;0.85;;;0.50;;
39044;SDS011;52192;52.002;5.956;2023-08-20T09:41:08;0.50;;;0.40;;
39044;SDS011;52192;52.002;5.956;2023-08-20T09:43:35;0.40;;;0.40;;
39044;SDS011;52192;52.002;5.956;2023-08-20T09:46:04;0.25;;;0.25;;
39044;SDS011;52192;52.002;5.956;2023-08-20T09:48:34;0.40;;;0.40;;
39044;SDS011;52192;52.002;5.956;2023-08-20T09:51:08;2.53;;;0.68;;
39044;SDS011;52192;52.002;5.956;2023-08-20T09:53:48;0.52;;;0.50;;
39044;SDS011;52192;52.002;5.956;2023-08-20T09:56:22;0.55;;;0.52;;
39044;SDS011;52192;52.002;5.956;2023-08-20T09:58:53;0.63;;;0.60;;
39044;SDS011;52192;52.002;5.956;2023-08-20T10:01:20;0.32;;;0.32;;
39044;SDS011;52192;52.002;5.956;2023-08-20T10:03:47;0.40;;;0.40;;
39044;SDS011;52192;52.002;5.956;2023-08-20T10:06:12;0.35;;;0.35;;
39044;SDS011;52192;52.002;5.956;2023-08-20T10:08:38;1.08;;;0.60;;
39044;SDS011;52192;52.002;5.956;2023-08-20T10:11:04;0.95;;;0.40;;
39044;SDS011;52192;52.002;5.956;2023-08-20T10:13:30;0.57;;;0.50;;
39044;SDS011;52192;52.002;5.956;2023-08-20T10:15:56;4.00;;;0.43;;
39044;SDS011;52192;52.002;5.956;2023-08-20T10:18:22;0.50;;;0.50;;
39044;SDS011;52192;52.002;5.956;2023-08-20T10:20:50;0.47;;;0.45;;
39044;SDS011;52192;52.002;5.956;2023-08-20T10:23:20;1.85;;;0.65;;
39044;SDS011;52192;52.002;5.956;2023-08-20T10:25:50;0.30;;;0.30;;
39044;SDS011;52192;52.002;5.956;2023-08-20T10:28:20;0.50;;;0.50;;
39044;SDS011;52192;52.002;5.956;2023-08-20T10:31:09;0.40;;;0.40;;
39044;SDS011;52192;52.002;5.956;2023-08-20T10:33:49;0.75;;;0.30;;
39044;SDS011;52192;52.002;5.956;2023-08-20T10:36:20;0.35;;;0.35;;
39044;SDS011;52192;52.002;5.956;2023-08-20T10:38:55;0.77;;;0.35;;
39044;SDS011;52192;52.002;5.956;2023-08-20T10:41:26;2.20;;;0.52;;
39044;SDS011;52192;52.002;5.956;2023-08-20T10:43:57;3.95;;;0.85;;
39044;SDS011;52192;52.002;5.956;2023-08-20T10:46:24;2.45;;;0.60;;
39044;SDS011;52192;52.002;5.956;2023-08-20T10:48:51;1.65;;;0.30;;
39044;SDS011;52192;52.002;5.956;2023-08-20T10:51:19;0.30;;;0.30;;
39044;SDS011;52192;52.002;5.956;2023-08-20T10:53:50;1.42;;;0.40;;
39044;SDS011;52192;52.002;5.956;2023-08-20T10:56:37;0.50;;;0.50;;
39044;SDS011;52192;52.002;5.956;2023-08-20T10:59:10;0.47;;;0.47;;
39044;SDS011;52192;52.002;5.956;2023-08-20T11:01:45;3.92;;;0.65;;
39044;SDS011;52192;52.002;5.956;2023-08-20T11:04:13;0.50;;;0.50;;
39044;SDS011;52192;52.002;5.956;2023-08-20T11:06:40;0.73;;;0.55;;
39044;SDS011;52192;52.002;5.956;2023-08-20T11:09:06;0.45;;;0.43;;
39044;SDS011;52192;52.002;5.956;2023-08-20T11:11:32;0.40;;;0.40;;
39044;SDS011;52192;52.002;5.956;2023-08-20T11:14:04;0.77;;;0.52;;
39044;SDS011;52192;52.002;5.956;2023-08-20T11:16:32;1.55;;;0.80;;
39044;SDS011;52192;52.002;5.956;2023-08-20T11:18:57;2.28;;;0.50;;
39044;SDS011;52192;52.002;5.956;2023-08-20T11:21:23;0.98;;;0.60;;
39044;SDS011;52192;52.002;5.956;2023-08-20T11:23:49;0.55;;;0.55;;
39044;SDS011;52192;52.002;5.956;2023-08-20T11:26:14;1.13;;;0.98;;
39044;SDS011;52192;52.002;5.956;2023-08-20T11:28:45;1.50;;;0.40;;
39044;SDS011;52192;52.002;5.956;2023-08-20T11:31:13;0.40;;;0.32;;
39044;SDS011;52192;52.002;5.956;2023-08-20T11:33:39;1.85;;;0.50;;
39044;SDS011;52192;52.002;5.956;2023-08-20T11:36:05;0.40;;;0.40;;
39044;SDS011;52192;52.002;5.956;2023-08-20T11:38:31;0.63;;;0.40;;
39044;SDS011;52192;52.002;5.956;2023-08-20T11:40:57;0.30;;;0.30;;
39044;SDS011;52192;52.002;5.956;2023-08-20T11:43:25;0.47;;;0.45;;
39044;SDS011;52192;52.002;5.956;2023-08-20T11:45:55;2.05;;;0.60;;
39044;SDS011;52192;52.002;5.956;2023-08-20T11:48:21;0.30;;;0.30;;
39044;SDS011;52192;52.002;5.956;2023-08-20T11:50:47;0.63;;;0.40;;
39044;SDS011;52192;52.002;5.956;2023-08-20T11:53:14;0.90;;;0.40;;
39044;SDS011;52192;52.002;5.956;2023-08-20T11:55:40;0.85;;;0.32;;
39044;SDS011;52192;52.002;5.956;2023-08-20T11:58:11;0.40;;;0.40;;
39044;SDS011;52192;52.002;5.956;2023-08-20T12:00:37;0.35;;;0.35;;
39044;SDS011;52192;52.002;5.956;2023-08-20T12:03:03;4.13;;;0.40;;
39044;SDS011;52192;52.002;5.956;2023-08-20T12:05:30;0.30;;;0.30;;
39044;SDS011;52192;52.002;5.956;2023-08-20T12:07:57;0.35;;;0.35;;
39044;SDS011;52192;52.002;5.956;2023-08-20T12:10:24;1.27;;;0.47;;
39044;SDS011;52192;52.002;5.956;2023-08-20T12:12:50;0.68;;;0.30;;
39044;SDS011;52192;52.002;5.956;2023-08-20T12:15:17;0.50;;;0.50;;
39044;SDS011;52192;52.002;5.956;2023-08-20T12:17:54;1.15;;;0.47;;
39044;SDS011;52192;52.002;5.956;2023-08-20T12:20:27;0.43;;;0.40;;
39044;SDS011;52192;52.002;5.956;2023-08-20T12:22:54;2.45;;;1.05;;
39044;SDS011;52192;52.002;5.956;2023-08-20T12:25:20;1.27;;;0.50;;
39044;SDS011;52192;52.002;5.956;2023-08-20T12:27:45;1.95;;;1.25;;
39044;SDS011;52192;52.002;5.956;2023-08-20T12:30:11;1.00;;;0.60;;
39044;SDS011;52192;52.002;5.956;2023-08-20T12:32:37;0.50;;;0.50;;
39044;SDS011;52192;52.002;5.956;2023-08-20T12:35:03;0.60;;;0.60;;
39044;SDS011;52192;52.002;5.956;2023-08-20T12:37:29;0.30;;;0.30;;
39044;SDS011;52192;52.002;5.956;2023-08-20T12:39:58;2.08;;;0.40;;
39044;SDS011;52192;52.002;5.956;2023-08-20T12:42:24;0.73;;;0.30;;
39044;SDS011;52192;52.002;5.956;2023-08-20T12:44:49;0.40;;;0.40;;
39044;SDS011;52192;52.002;5.956;2023-08-20T12:47:15;1.23;;;0.40;;
39044;SDS011;52192;52.002;5.956;2023-08-20T12:49:41;1.00;;;0.50;;
39044;SDS011;52192;52.002;5.956;2023-08-20T12:52:06;1.17;;;0.73;;
39044;SDS011;52192;52.002;5.956;2023-08-20T12:54:33;3.45;;;0.70;;
39044;SDS011;52192;52.002;5.956;2023-08-20T12:56:58;0.55;;;0.43;;
39044;SDS011;52192;52.002;5.956;2023-08-20T12:59:24;0.40;;;0.40;;
39044;SDS011;52192;52.002;5.956;2023-08-20T13:01:50;0.63;;;0.43;;
39044;SDS011;52192;52.002;5.956;2023-08-20T13:04:15;0.80;;;0.50;;
39044;SDS011;52192;52.002;5.956;2023-08-20T13:06:41;0.70;;;0.40;;
39044;SDS011;52192;52.002;5.956;2023-08-20T13:09:07;0.40;;;0.40;;
39044;SDS011;52192;52.002;5.956;2023-08-20T13:11:34;0.55;;;0.50;;
39044;SDS011;52192;52.002;5.956;2023-08-20T13:14:03;1.25;;;0.52;;
39044;SDS011;52192;52.002;5.956;2023-08-20T13:16:29;0.50;;;0.40;;
39044;SDS011;52192;52.002;5.956;2023-08-20T13:18:55;2.08;;;0.50;;
39044;SDS011;52192;52.002;5.956;2023-08-20T13:21:20;4.95;;;0.88;;
39044;SDS011;52192;52.002;5.956;2023-08-20T13:23:46;1.55;;;0.38;;
39044;SDS011;52192;52.002;5.956;2023-08-20T13:26:12;0.50;;;0.50;;
39044;SDS011;52192;52.002;5.956;2023-08-20T13:28:38;0.40;;;0.32;;
39044;SDS011;52192;52.002;5.956;2023-08-20T13:31:04;0.68;;;0.50;;
39044;SDS011;52192;52.002;5.956;2023-08-20T13:33:30;0.45;;;0.35;;
39044;SDS011;52192;52.002;5.956;2023-08-20T13:35:55;0.57;;;0.40;;
39044;SDS011;52192;52.002;5.956;2023-08-20T13:38:22;1.50;;;0.60;;
39044;SDS011;52192;52.002;5.956;2023-08-20T13:40:48;1.23;;;0.80;;
39044;SDS011;52192;52.002;5.956;2023-08-20T13:43:14;0.50;;;0.50;;
39044;SDS011;52192;52.002;5.956;2023-08-20T13:45:40;0.70;;;0.70;;
39044;SDS011;52192;52.002;5.956;2023-08-20T13:48:06;1.15;;;0.60;;
39044;SDS011;52192;52.002;5.956;2023-08-20T13:50:32;2.80;;;0.45;;
39044;SDS011;52192;52.002;5.956;2023-08-20T13:52:58;1.73;;;0.40;;
39044;SDS011;52192;52.002;5.956;2023-08-20T13:55:24;0.40;;;0.40;;
39044;SDS011;52192;52.002;5.956;2023-08-20T13:57:49;0.52;;;0.52;;
39044;SDS011;52192;52.002;5.956;2023-08-20T14:00:15;0.60;;;0.60;;
39044;SDS011;52192;52.002;5.956;2023-08-20T14:02:41;0.93;;;0.50;;
39044;SDS011;52192;52.002;5.956;2023-08-20T14:05:07;0.60;;;0.60;;
39044;SDS011;52192;52.002;5.956;2023-08-20T14:07:33;0.60;;;0.60;;
39044;SDS011;52192;52.002;5.956;2023-08-20T14:09:59;2.85;;;0.80;;
39044;SDS011;52192;52.002;5.956;2023-08-20T14:12:25;0.95;;;0.47;;
39044;SDS011;52192;52.002;5.956;2023-08-20T14:14:51;0.63;;;0.63;;
39044;SDS011;52192;52.002;5.956;2023-08-20T14:17:16;1.75;;;0.60;;
39044;SDS011;52192;52.002;5.956;2023-08-20T14:19:42;0.73;;;0.57;;
39044;SDS011;52192;52.002;5.956;2023-08-20T14:22:07;0.60;;;0.60;;
39044;SDS011;52192;52.002;5.956;2023-08-20T14:24:33;1.90;;;0.65;;
39044;SDS011;52192;52.002;5.956;2023-08-20T14:26:59;2.20;;;0.77;;
39044;SDS011;52192;52.002;5.956;2023-08-20T14:29:24;2.20;;;0.80;;
39044;SDS011;52192;52.002;5.956;2023-08-20T14:31:50;1.77;;;0.60;;
39044;SDS011;52192;52.002;5.956;2023-08-20T14:34:16;0.50;;;0.50;;
39044;SDS011;52192;52.002;5.956;2023-08-20T14:36:41;1.08;;;0.70;;
39044;SDS011;52192;52.002;5.956;2023-08-20T14:39:07;0.63;;;0.50;;
39044;SDS011;52192;52.002;5.956;2023-08-20T14:41:33;1.52;;;0.73;;
39044;SDS011;52192;52.002;5.956;2023-08-20T14:43:59;0.63;;;0.40;;
39044;SDS011;52192;52.002;5.956;2023-08-20T14:46:24;0.85;;;0.57;;
39044;SDS011;52192;52.002;5.956;2023-08-20T14:48:50;0.75;;;0.55;;
39044;SDS011;52192;52.002;5.956;2023-08-20T14:51:16;2.53;;;0.80;;
39044;SDS011;52192;52.002;5.956;2023-08-20T14:53:41;0.50;;;0.50;;
39044;SDS011;52192;52.002;5.956;2023-08-20T14:56:07;0.70;;;0.70;;